Madawaska, ME

5:19 AM EST on February 13, 2016 (GMT -0500)
W1AYX | | Change Station
CLOSE
Current Station
Personal Weather Station
Location: Madawaska, ME
Elevation: 545 ft
Nearby Weather Stations
Active Advisory: Wind Chill Warning

Elev 545 ft 47.35 °N, 68.28 °W | Updated 13 seconds ago

Overcast
Overcast
-13.5 °F
Feels Like -14 °F
N
0.0
Wind Variable Wind from WNW
Gusts 0.0 mph

Today
High -- | Low -- °F
--% Chance of Precip.
Yesterday
High -- | Low -- °F
Precip. -- in
Pressure 29.85 in
Visibility 10.0 miles
Clouds Overcast 5500 ft
Windchill -14 °F
Dew Point -28 °F
Humidity 47%
Rainfall 0.00 in
Snow Depth Not available.
6:42 AM 4:53 PM
Waxing Crescent, 29% visible
METAR KFVE 130953Z AUTO 09009KT 10SM OVC055 M21/M24 A2977 RMK AO2 SLP107 T12061244
Pressure 29.85 in
Visibility 10.0 miles
Clouds Overcast 5500 ft
Windchill -14 °F
Dew Point -28 °F
Humidity 47%
Rainfall 0.00 in
Snow Depth Not available.
6:42 AM 4:53 PM
Waxing Crescent, 29% visible
METAR KFVE 130953Z AUTO 09009KT 10SM OVC055 M21/M24 A2977 RMK AO2 SLP107 T12061244

10-Day Weather Forecast

Almanac

Astronomy

Feb. 13, 2016 Rise Set
Actual Time
Civil Twilight
Nautical Twilight
Astronomical Twilight
Moon
Length of Visible Light
Length of Day
Tomorrow will be .
, % of the Moon is Illuminated

Today's Extremes

State Highs State Lows

Community

WunderPhotos

Upload Photos

1,892,536 photos uploaded!

WunderBlog® & News

Nearby

Air Quality

  Air Quality AQ Index Pollutant
Not available.

Snow Depth

Station Depth Elevation

Earthquake Activity

City Distance Mag. Time & Date
Minimum magnitude displayed is 2.5.

Coastal Water Temperatures

Place Temperature

Stations

Nearby Weather Stations

Station Location Temp. Windchill Dew Point Humidity Wind Precip. Elev Updated Type
                   

Watches & Warnings

Wind Chill Warning
Issued: 3:37 AM EST Feb. 13, 2016 – National Weather Service

... Wind chill warning remains in effect from 2 am to 10 am EST
Sunday...

* locations... Northwest Aroostook County... northern Somerset
County... and northern and central Piscataquis County.

* Hazard types... dangerously cold wind chills.

* Wind chill readings... as low as 40 below.

* Timing... late Saturday night into Sunday morning.

* Impacts... frostbite and hypothermia are likely if not dressed
appropriately while outdoors.

* Winds... northwest 5 to 15 mph with gusts up to 25 mph.

* Temperatures... 6 below to 19 below zero.

Precautionary/preparedness actions...

A wind chill warning means the combination of very cold air and
strong winds will create dangerously low wind chill values. This
will result in frost bite and lead to hypothermia or death if
precautions are not taken.